sensor_id;sensor_type;location;lat;lon;timestamp;pressure;altitude;pressure_sealevel;temperature;humidity
13456;BME280;6800;50.940;6.940;2024-03-23T00:53:36;100177.91;;;20.66;43.70
13456;BME280;6800;50.940;6.940;2024-03-23T00:57:37;100188.50;;;20.58;44.08
13456;BME280;6800;50.940;6.940;2024-03-23T01:01:38;100165.34;;;20.84;43.32
13456;BME280;6800;50.940;6.940;2024-03-23T01:05:38;100150.22;;;20.52;43.51
13456;BME280;6800;50.940;6.940;2024-03-23T01:09:39;100164.31;;;20.77;43.14
13456;BME280;6800;50.940;6.940;2024-03-23T01:13:39;100166.91;;;20.37;43.41
13456;BME280;6800;50.940;6.940;2024-03-23T01:17:40;100162.00;;;20.58;43.47
13456;BME280;6800;50.940;6.940;2024-03-23T01:21:40;100151.06;;;20.03;43.77
13456;BME280;6800;50.940;6.940;2024-03-23T01:25:41;100156.38;;;19.69;43.79
13456;BME280;6800;50.940;6.940;2024-03-23T01:29:41;100148.91;;;20.06;43.04
13456;BME280;6800;50.940;6.940;2024-03-23T01:33:42;100168.28;;;19.39;43.40
13456;BME280;6800;50.940;6.940;2024-03-23T01:37:45;100164.38;;;19.85;43.24
13456;BME280;6800;50.940;6.940;2024-03-23T01:41:46;100171.97;;;19.72;42.88
13456;BME280;6800;50.940;6.940;2024-03-23T01:45:46;100164.34;;;19.77;43.07
13456;BME280;6800;50.940;6.940;2024-03-23T01:49:47;100149.84;;;19.89;42.64
13456;BME280;6800;50.940;6.940;2024-03-23T01:53:48;100147.06;;;19.99;42.81
13456;BME280;6800;50.940;6.940;2024-03-23T01:57:48;100155.63;;;19.85;42.57
13456;BME280;6800;50.940;6.940;2024-03-23T02:01:49;100147.34;;;19.54;43.21
13456;BME280;6800;50.940;6.940;2024-03-23T02:05:50;100152.91;;;19.43;42.72
13456;BME280;6800;50.940;6.940;2024-03-23T02:09:51;100153.06;;;19.67;42.57
13456;BME280;6800;50.940;6.940;2024-03-23T02:13:53;100157.34;;;19.34;43.31
13456;BME280;6800;50.940;6.940;2024-03-23T02:17:53;100163.28;;;19.36;43.96
13456;BME280;6800;50.940;6.940;2024-03-23T02:21:54;100155.44;;;19.44;43.52
13456;BME280;6800;50.940;6.940;2024-03-23T02:25:54;100147.59;;;19.69;42.77
13456;BME280;6800;50.940;6.940;2024-03-23T02:29:55;100157.31;;;19.60;42.81
13456;BME280;6800;50.940;6.940;2024-03-23T02:33:55;100163.28;;;18.13;44.13
13456;BME280;6800;50.940;6.940;2024-03-23T02:37:56;100157.06;;;17.87;44.17
13456;BME280;6800;50.940;6.940;2024-03-23T02:41:57;100168.38;;;17.97;44.16
13456;BME280;6800;50.940;6.940;2024-03-23T02:46:00;100175.94;;;18.37;42.93
13456;BME280;6800;50.940;6.940;2024-03-23T02:50:01;100183.34;;;18.33;42.42
13456;BME280;6800;50.940;6.940;2024-03-23T02:54:02;100187.47;;;18.63;42.11
13456;BME280;6800;50.940;6.940;2024-03-23T02:58:02;100186.34;;;18.48;42.38
13456;BME280;6800;50.940;6.940;2024-03-23T03:02:04;100186.88;;;18.87;42.33
13456;BME280;6800;50.940;6.940;2024-03-23T03:06:05;100174.34;;;18.71;42.17
13456;BME280;6800;50.940;6.940;2024-03-23T03:10:06;100178.63;;;18.54;42.47
13456;BME280;6800;50.940;6.940;2024-03-23T03:14:08;100169.81;;;18.63;42.48
13456;BME280;6800;50.940;6.940;2024-03-23T03:18:09;100154.56;;;18.57;42.71
13456;BME280;6800;50.940;6.940;2024-03-23T03:22:10;100151.44;;;18.80;42.30
13456;BME280;6800;50.940;6.940;2024-03-23T03:26:10;100160.41;;;18.51;42.67
13456;BME280;6800;50.940;6.940;2024-03-23T03:30:11;100173.34;;;18.90;42.53
13456;BME280;6800;50.940;6.940;2024-03-23T03:34:12;100171.84;;;18.69;42.21
13456;BME280;6800;50.940;6.940;2024-03-23T03:38:12;100158.63;;;18.69;42.09
13456;BME280;6800;50.940;6.940;2024-03-23T03:42:13;100166.16;;;19.00;41.85
13456;BME280;6800;50.940;6.940;2024-03-23T03:46:13;100165.34;;;18.82;42.04
13456;BME280;6800;50.940;6.940;2024-03-23T03:50:14;100150.47;;;18.81;41.72
13456;BME280;6800;50.940;6.940;2024-03-23T03:54:14;100163.44;;;18.92;41.65
13456;BME280;6800;50.940;6.940;2024-03-23T03:58:15;100173.34;;;18.54;42.17
13456;BME280;6800;50.940;6.940;2024-03-23T04:02:16;100171.63;;;18.81;41.63
13456;BME280;6800;50.940;6.940;2024-03-23T04:06:19;100173.03;;;18.93;41.64
13456;BME280;6800;50.940;6.940;2024-03-23T04:10:20;100163.59;;;18.90;41.26
13456;BME280;6800;50.940;6.940;2024-03-23T04:14:21;100170.78;;;18.98;41.68
13456;BME280;6800;50.940;6.940;2024-03-23T04:18:22;100176.47;;;19.11;41.35
13456;BME280;6800;50.940;6.940;2024-03-23T04:22:23;100183.00;;;18.99;41.86
13456;BME280;6800;50.940;6.940;2024-03-23T04:26:26;100180.22;;;19.26;42.35
13456;BME280;6800;50.940;6.940;2024-03-23T04:30:26;100178.63;;;19.07;41.78
13456;BME280;6800;50.940;6.940;2024-03-23T04:34:29;100191.09;;;18.97;41.44
13456;BME280;6800;50.940;6.940;2024-03-23T04:38:29;100186.78;;;18.96;41.56
13456;BME280;6800;50.940;6.940;2024-03-23T04:42:31;100189.66;;;19.03;41.70
13456;BME280;6800;50.940;6.940;2024-03-23T04:46:31;100193.59;;;18.99;41.73
13456;BME280;6800;50.940;6.940;2024-03-23T04:50:32;100193.91;;;18.96;41.91
13456;BME280;6800;50.940;6.940;2024-03-23T04:54:33;100193.88;;;19.13;41.40
13456;BME280;6800;50.940;6.940;2024-03-23T04:58:33;100182.09;;;19.08;42.04
13456;BME280;6800;50.940;6.940;2024-03-23T05:02:34;100164.50;;;18.99;41.54
13456;BME280;6800;50.940;6.940;2024-03-23T05:06:35;100173.16;;;19.09;41.67
13456;BME280;6800;50.940;6.940;2024-03-23T05:10:35;100186.47;;;19.17;41.59
13456;BME280;6800;50.940;6.940;2024-03-23T05:14:36;100184.22;;;19.04;41.75
13456;BME280;6800;50.940;6.940;2024-03-23T05:18:37;100195.53;;;19.14;41.74
13456;BME280;6800;50.940;6.940;2024-03-23T05:22:39;100194.03;;;19.12;41.88
13456;BME280;6800;50.940;6.940;2024-03-23T05:26:39;100198.53;;;19.19;41.27
13456;BME280;6800;50.940;6.940;2024-03-23T05:30:40;100196.13;;;19.26;41.87
13456;BME280;6800;50.940;6.940;2024-03-23T05:34:41;100194.38;;;18.91;41.88
13456;BME280;6800;50.940;6.940;2024-03-23T05:38:41;100196.22;;;19.16;41.54
13456;BME280;6800;50.940;6.940;2024-03-23T05:42:42;100196.56;;;19.21;41.48
13456;BME280;6800;50.940;6.940;2024-03-23T05:46:42;100195.56;;;18.97;42.20
13456;BME280;6800;50.940;6.940;2024-03-23T05:50:49;100185.25;;;19.11;41.88
13456;BME280;6800;50.940;6.940;2024-03-23T05:54:50;100195.78;;;18.86;41.92
13456;BME280;6800;50.940;6.940;2024-03-23T05:58:50;100197.34;;;19.14;41.40
13456;BME280;6800;50.940;6.940;2024-03-23T06:02:51;100208.78;;;18.97;41.76
13456;BME280;6800;50.940;6.940;2024-03-23T06:06:51;100202.22;;;18.83;41.98
13456;BME280;6800;50.940;6.940;2024-03-23T06:10:55;100207.66;;;19.17;42.18
13456;BME280;6800;50.940;6.940;2024-03-23T06:14:55;100212.53;;;19.29;41.22
13456;BME280;6800;50.940;6.940;2024-03-23T06:18:56;100208.56;;;19.08;41.38
13456;BME280;6800;50.940;6.940;2024-03-23T06:22:57;100204.22;;;19.07;41.18
13456;BME280;6800;50.940;6.940;2024-03-23T06:26:58;100201.59;;;19.07;41.06
13456;BME280;6800;50.940;6.940;2024-03-23T06:30:58;100204.69;;;19.02;41.30
13456;BME280;6800;50.940;6.940;2024-03-23T06:34:59;100209.81;;;19.21;41.08
13456;BME280;6800;50.940;6.940;2024-03-23T06:38:59;100213.59;;;19.36;40.60
13456;BME280;6800;50.940;6.940;2024-03-23T06:43:00;100211.38;;;19.50;40.56
13456;BME280;6800;50.940;6.940;2024-03-23T06:47:00;100217.22;;;19.18;40.94
13456;BME280;6800;50.940;6.940;2024-03-23T06:51:01;100224.84;;;19.38;40.40
13456;BME280;6800;50.940;6.940;2024-03-23T06:55:02;100221.53;;;19.36;41.01
13456;BME280;6800;50.940;6.940;2024-03-23T06:59:04;100221.91;;;19.41;40.47
13456;BME280;6800;50.940;6.940;2024-03-23T07:03:05;100226.22;;;19.25;40.66
13456;BME280;6800;50.940;6.940;2024-03-23T07:07:07;100221.19;;;19.57;40.36
13456;BME280;6800;50.940;6.940;2024-03-23T07:11:08;100228.66;;;19.36;40.46
13456;BME280;6800;50.940;6.940;2024-03-23T07:15:09;100236.25;;;19.57;39.70
13456;BME280;6800;50.940;6.940;2024-03-23T07:19:09;100234.63;;;20.65;39.01
13456;BME280;6800;50.940;6.940;2024-03-23T07:23:10;100221.28;;;21.23;38.41
13456;BME280;6800;50.940;6.940;2024-03-23T07:27:13;100229.94;;;22.04;36.57
13456;BME280;6800;50.940;6.940;2024-03-23T07:31:14;100234.38;;;22.19;34.97
13456;BME280;6800;50.940;6.940;2024-03-23T07:35:14;100236.28;;;22.33;34.87
13456;BME280;6800;50.940;6.940;2024-03-23T07:39:15;100237.84;;;22.89;33.45
13456;BME280;6800;50.940;6.940;2024-03-23T07:43:15;100231.69;;;24.00;31.57
13456;BME280;6800;50.940;6.940;2024-03-23T07:47:16;100237.13;;;24.07;31.82
13456;BME280;6800;50.940;6.940;2024-03-23T07:51:19;100228.16;;;23.56;32.44
13456;BME280;6800;50.940;6.940;2024-03-23T07:55:21;100233.63;;;24.36;31.33
13456;BME280;6800;50.940;6.940;2024-03-23T07:59:21;100224.75;;;24.71;30.81
13456;BME280;6800;50.940;6.940;2024-03-23T08:03:22;100224.47;;;23.57;31.89
13456;BME280;6800;50.940;6.940;2024-03-23T08:07:23;100228.97;;;24.59;30.21
13456;BME280;6800;50.940;6.940;2024-03-23T08:11:23;100228.00;;;24.66;30.48
13456;BME280;6800;50.940;6.940;2024-03-23T08:15:24;100228.63;;;25.74;28.14
13456;BME280;6800;50.940;6.940;2024-03-23T08:19:24;100218.41;;;26.18;27.31
13456;BME280;6800;50.940;6.940;2024-03-23T08:23:25;100223.91;;;25.27;28.41
13456;BME280;6800;50.940;6.940;2024-03-23T08:27:26;100227.50;;;26.30;26.32
13456;BME280;6800;50.940;6.940;2024-03-23T08:31:26;100237.03;;;24.80;26.65
13456;BME280;6800;50.940;6.940;2024-03-23T08:35:27;100242.75;;;24.12;27.19
13456;BME280;6800;50.940;6.940;2024-03-23T08:39:27;100249.97;;;23.14;28.15
13456;BME280;6800;50.940;6.940;2024-03-23T08:43:29;100254.22;;;23.46;29.02
13456;BME280;6800;50.940;6.940;2024-03-23T08:47:34;100257.41;;;23.64;28.40
13456;BME280;6800;50.940;6.940;2024-03-23T08:51:35;100242.81;;;25.75;26.16
13456;BME280;6800;50.940;6.940;2024-03-23T08:55:35;100257.63;;;25.77;26.08
13456;BME280;6800;50.940;6.940;2024-03-23T08:59:37;100258.91;;;24.90;26.58
13456;BME280;6800;50.940;6.940;2024-03-23T09:03:38;100246.41;;;26.22;26.99
13456;BME280;6800;50.940;6.940;2024-03-23T09:07:38;100236.59;;;27.95;24.46
13456;BME280;6800;50.940;6.940;2024-03-23T09:11:39;100237.25;;;27.70;24.05
13456;BME280;6800;50.940;6.940;2024-03-23T09:15:50;100221.53;;;27.80;23.80
13456;BME280;6800;50.940;6.940;2024-03-23T09:19:50;100234.66;;;26.23;26.62
13456;BME280;6800;50.940;6.940;2024-03-23T09:23:51;100227.25;;;23.64;28.03
13456;BME280;6800;50.940;6.940;2024-03-23T09:27:51;100238.66;;;23.12;29.14
13456;BME280;6800;50.940;6.940;2024-03-23T09:31:52;100244.22;;;22.80;29.52
13456;BME280;6800;50.940;6.940;2024-03-23T09:35:52;100237.44;;;24.48;27.09
13456;BME280;6800;50.940;6.940;2024-03-23T09:39:53;100237.31;;;22.71;29.04
13456;BME280;6800;50.940;6.940;2024-03-23T09:43:53;100225.84;;;22.32;29.11
13456;BME280;6800;50.940;6.940;2024-03-23T09:47:54;100230.75;;;23.04;28.23
13456;BME280;6800;50.940;6.940;2024-03-23T09:51:55;100211.84;;;25.10;25.74
13456;BME280;6800;50.940;6.940;2024-03-23T09:55:56;100218.38;;;24.15;26.89
13456;BME280;6800;50.940;6.940;2024-03-23T09:59:57;100222.22;;;23.69;25.95
13456;BME280;6800;50.940;6.940;2024-03-23T10:03:58;100210.59;;;24.35;26.06
13456;BME280;6800;50.940;6.940;2024-03-23T10:07:58;100202.72;;;25.26;24.81
13456;BME280;6800;50.940;6.940;2024-03-23T10:12:08;100199.53;;;27.52;22.17
13456;BME280;6800;50.940;6.940;2024-03-23T10:16:12;100185.69;;;28.70;20.83
13456;BME280;6800;50.940;6.940;2024-03-23T10:20:21;100187.63;;;29.86;20.15
13456;BME280;6800;50.940;6.940;2024-03-23T10:24:23;100197.72;;;28.17;20.32
13456;BME280;6800;50.940;6.940;2024-03-23T10:28:23;100198.50;;;26.41;21.98
13456;BME280;6800;50.940;6.940;2024-03-23T10:32:24;100195.56;;;24.48;23.49
13456;BME280;6800;50.940;6.940;2024-03-23T10:36:25;100211.34;;;22.73;25.99
13456;BME280;6800;50.940;6.940;2024-03-23T10:40:29;100237.78;;;21.89;28.61
13456;BME280;6800;50.940;6.940;2024-03-23T10:44:30;100237.31;;;21.61;29.24
13456;BME280;6800;50.940;6.940;2024-03-23T10:48:32;100245.50;;;21.28;29.54
13456;BME280;6800;50.940;6.940;2024-03-23T10:52:38;100251.56;;;22.39;28.74
13456;BME280;6800;50.940;6.940;2024-03-23T10:56:39;100233.03;;;23.82;26.65
13456;BME280;6800;50.940;6.940;2024-03-23T11:00:41;100235.63;;;25.26;25.18
13456;BME280;6800;50.940;6.940;2024-03-23T11:04:42;100248.91;;;24.77;26.25
13456;BME280;6800;50.940;6.940;2024-03-23T11:08:43;100242.25;;;24.73;27.07
13456;BME280;6800;50.940;6.940;2024-03-23T11:12:45;100237.00;;;26.87;23.94
13456;BME280;6800;50.940;6.940;2024-03-23T11:16:45;100222.31;;;28.20;22.42
13456;BME280;6800;50.940;6.940;2024-03-23T11:20:46;100200.00;;;30.90;19.50
13456;BME280;6800;50.940;6.940;2024-03-23T11:24:50;100225.44;;;26.86;23.29
13456;BME280;6800;50.940;6.940;2024-03-23T11:29:08;100240.50;;;24.45;27.47
13456;BME280;6800;50.940;6.940;2024-03-23T11:33:09;100252.25;;;21.87;29.48
13456;BME280;6800;50.940;6.940;2024-03-23T11:37:10;100246.94;;;21.87;31.89
13456;BME280;6800;50.940;6.940;2024-03-23T11:41:10;100239.09;;;22.40;31.89
13456;BME280;6800;50.940;6.940;2024-03-23T11:45:11;100217.50;;;25.77;28.23
13456;BME280;6800;50.940;6.940;2024-03-23T11:49:25;100211.97;;;24.66;27.95
13456;BME280;6800;50.940;6.940;2024-03-23T11:53:25;100213.16;;;23.18;29.71
13456;BME280;6800;50.940;6.940;2024-03-23T11:57:29;100228.97;;;22.74;29.95
13456;BME280;6800;50.940;6.940;2024-03-23T12:01:31;100238.31;;;22.70;31.39
13456;BME280;6800;50.940;6.940;2024-03-23T12:05:32;100229.34;;;21.69;32.22
13456;BME280;6800;50.940;6.940;2024-03-23T12:09:34;100242.22;;;20.60;32.73
13456;BME280;6800;50.940;6.940;2024-03-23T12:13:34;100220.09;;;21.25;30.20
13456;BME280;6800;50.940;6.940;2024-03-23T12:17:35;100209.06;;;23.07;29.65
13456;BME280;6800;50.940;6.940;2024-03-23T12:21:35;100214.38;;;23.30;28.26
13456;BME280;6800;50.940;6.940;2024-03-23T12:25:36;100245.91;;;20.83;31.53
13456;BME280;6800;50.940;6.940;2024-03-23T12:29:37;100251.34;;;19.21;34.09
13456;BME280;6800;50.940;6.940;2024-03-23T12:33:39;100279.44;;;18.32;35.86
13456;BME280;6800;50.940;6.940;2024-03-23T12:37:40;100280.59;;;19.02;35.01
13456;BME280;6800;50.940;6.940;2024-03-23T12:41:40;100285.66;;;18.50;36.43
13456;BME280;6800;50.940;6.940;2024-03-23T12:45:41;100283.38;;;19.18;35.92
13456;BME280;6800;50.940;6.940;2024-03-23T12:49:41;100262.16;;;19.27;36.83
13456;BME280;6800;50.940;6.940;2024-03-23T12:53:42;100248.28;;;20.10;35.16
13456;BME280;6800;50.940;6.940;2024-03-23T12:57:43;100241.75;;;19.37;34.92
13456;BME280;6800;50.940;6.940;2024-03-23T13:01:43;100247.16;;;20.47;33.35
13456;BME280;6800;50.940;6.940;2024-03-23T13:05:44;100225.34;;;20.61;32.77
13456;BME280;6800;50.940;6.940;2024-03-23T13:09:52;100230.38;;;20.04;32.66
13456;BME280;6800;50.940;6.940;2024-03-23T13:13:53;100225.88;;;20.88;30.69
13456;BME280;6800;50.940;6.940;2024-03-23T13:17:53;100212.16;;;21.33;30.58
13456;BME280;6800;50.940;6.940;2024-03-23T13:21:54;100213.09;;;21.56;30.16
13456;BME280;6800;50.940;6.940;2024-03-23T13:25:55;100202.41;;;21.97;29.92
13456;BME280;6800;50.940;6.940;2024-03-23T13:29:56;100198.06;;;22.65;29.30
13456;BME280;6800;50.940;6.940;2024-03-23T13:33:58;100196.63;;;21.69;29.33
13456;BME280;6800;50.940;6.940;2024-03-23T13:37:58;100193.44;;;21.82;29.92
13456;BME280;6800;50.940;6.940;2024-03-23T13:41:59;100172.19;;;22.51;28.76
13456;BME280;6800;50.940;6.940;2024-03-23T13:45:59;100174.56;;;22.15;29.10
13456;BME280;6800;50.940;6.940;2024-03-23T13:50:00;100176.25;;;22.08;28.62
13456;BME280;6800;50.940;6.940;2024-03-23T13:54:00;100169.53;;;22.51;28.45
13456;BME280;6800;50.940;6.940;2024-03-23T13:58:04;100185.72;;;22.11;28.75
13456;BME280;6800;50.940;6.940;2024-03-23T14:02:04;100203.28;;;21.57;27.76
13456;BME280;6800;50.940;6.940;2024-03-23T14:06:05;100189.03;;;20.19;30.68
13456;BME280;6800;50.940;6.940;2024-03-23T14:10:08;100181.09;;;20.85;30.06
13456;BME280;6800;50.940;6.940;2024-03-23T14:14:11;100182.91;;;20.77;29.27
13456;BME280;6800;50.940;6.940;2024-03-23T14:18:11;100175.97;;;21.08;29.52
13456;BME280;6800;50.940;6.940;2024-03-23T14:22:14;100182.41;;;20.89;28.89
13456;BME280;6800;50.940;6.940;2024-03-23T14:26:14;100180.16;;;21.82;27.80
13456;BME280;6800;50.940;6.940;2024-03-23T14:30:15;100172.47;;;21.24;27.84
13456;BME280;6800;50.940;6.940;2024-03-23T14:34:15;100171.44;;;21.49;27.12
13456;BME280;6800;50.940;6.940;2024-03-23T14:38:17;100172.19;;;21.82;26.97
13456;BME280;6800;50.940;6.940;2024-03-23T14:42:17;100174.63;;;21.99;26.50
13456;BME280;6800;50.940;6.940;2024-03-23T14:46:18;100175.59;;;22.06;26.95
13456;BME280;6800;50.940;6.940;2024-03-23T14:50:19;100191.81;;;20.52;29.14
13456;BME280;6800;50.940;6.940;2024-03-23T14:54:19;100217.97;;;20.47;30.84
13456;BME280;6800;50.940;6.940;2024-03-23T14:58:20;100235.69;;;19.10;32.94
13456;BME280;6800;50.940;6.940;2024-03-23T15:02:21;100242.56;;;19.20;33.42
13456;BME280;6800;50.940;6.940;2024-03-23T15:06:22;100246.84;;;18.68;34.45
13456;BME280;6800;50.940;6.940;2024-03-23T15:10:22;100216.34;;;18.92;34.71
13456;BME280;6800;50.940;6.940;2024-03-23T15:14:28;100199.88;;;18.98;34.91
13456;BME280;6800;50.940;6.940;2024-03-23T15:18:29;100193.06;;;18.95;34.85
13456;BME280;6800;50.940;6.940;2024-03-23T15:22:30;100180.69;;;19.39;34.80
13456;BME280;6800;50.940;6.940;2024-03-23T15:26:31;100176.78;;;20.18;34.10
13456;BME280;6800;50.940;6.940;2024-03-23T15:30:33;100172.59;;;20.50;33.20
13456;BME280;6800;50.940;6.940;2024-03-23T15:34:34;100183.28;;;20.24;33.73
13456;BME280;6800;50.940;6.940;2024-03-23T15:38:35;100171.41;;;19.94;34.38
13456;BME280;6800;50.940;6.940;2024-03-23T15:42:35;100154.97;;;20.33;33.36
13456;BME280;6800;50.940;6.940;2024-03-23T15:46:36;100159.47;;;19.90;33.90
13456;BME280;6800;50.940;6.940;2024-03-23T15:50:36;100165.97;;;19.70;34.46
13456;BME280;6800;50.940;6.940;2024-03-23T15:54:37;100164.75;;;19.90;33.91
13456;BME280;6800;50.940;6.940;2024-03-23T15:58:37;100161.00;;;20.09;33.36
13456;BME280;6800;50.940;6.940;2024-03-23T16:02:38;100161.81;;;20.01;33.21
13456;BME280;6800;50.940;6.940;2024-03-23T16:06:38;100175.75;;;20.11;33.34
13456;BME280;6800;50.940;6.940;2024-03-23T16:10:39;100185.19;;;20.06;33.57
13456;BME280;6800;50.940;6.940;2024-03-23T16:14:39;100178.81;;;19.83;34.42
13456;BME280;6800;50.940;6.940;2024-03-23T16:18:40;100169.88;;;19.58;35.19
13456;BME280;6800;50.940;6.940;2024-03-23T16:22:40;100139.97;;;20.07;34.90
13456;BME280;6800;50.940;6.940;2024-03-23T16:26:41;100140.28;;;19.63;34.82
13456;BME280;6800;50.940;6.940;2024-03-23T16:30:41;100132.75;;;19.42;34.67
13456;BME280;6800;50.940;6.940;2024-03-23T16:34:42;100136.16;;;19.68;34.41
13456;BME280;6800;50.940;6.940;2024-03-23T16:38:42;100141.97;;;19.64;34.72
13456;BME280;6800;50.940;6.940;2024-03-23T16:42:43;100142.75;;;19.56;34.17
13456;BME280;6800;50.940;6.940;2024-03-23T16:46:44;100134.78;;;19.30;34.16
13456;BME280;6800;50.940;6.940;2024-03-23T16:50:44;100139.59;;;19.09;34.20
13456;BME280;6800;50.940;6.940;2024-03-23T16:54:45;100137.06;;;19.51;33.62
13456;BME280;6800;50.940;6.940;2024-03-23T16:58:46;100135.34;;;19.16;33.60
13456;BME280;6800;50.940;6.940;2024-03-23T17:02:49;100129.25;;;19.75;33.29
13456;BME280;6800;50.940;6.940;2024-03-23T17:06:49;100130.16;;;19.32;33.87
13456;BME280;6800;50.940;6.940;2024-03-23T17:10:50;100121.78;;;19.37;33.66
13456;BME280;6800;50.940;6.940;2024-03-23T17:14:51;100122.34;;;18.80;34.65
13456;BME280;6800;50.940;6.940;2024-03-23T17:18:51;100123.47;;;19.20;34.22
13456;BME280;6800;50.940;6.940;2024-03-23T17:22:54;100120.03;;;19.28;34.23
13456;BME280;6800;50.940;6.940;2024-03-23T17:26:54;100129.28;;;19.24;34.38
13456;BME280;6800;50.940;6.940;2024-03-23T17:30:55;100126.59;;;19.16;34.43
13456;BME280;6800;50.940;6.940;2024-03-23T17:34:55;100118.66;;;19.16;34.41
13456;BME280;6800;50.940;6.940;2024-03-23T17:38:56;100112.03;;;18.51;35.47
13456;BME280;6800;50.940;6.940;2024-03-23T17:42:57;100104.28;;;18.40;35.92
13456;BME280;6800;50.940;6.940;2024-03-23T17:47:00;100099.06;;;18.30;35.92
13456;BME280;6800;50.940;6.940;2024-03-23T17:51:02;100101.97;;;18.54;35.72
13456;BME280;6800;50.940;6.940;2024-03-23T17:55:03;100109.94;;;18.98;35.61
13456;BME280;6800;50.940;6.940;2024-03-23T17:59:03;100114.94;;;19.09;35.41
13456;BME280;6800;50.940;6.940;2024-03-23T18:03:04;100104.44;;;18.74;35.58
13456;BME280;6800;50.940;6.940;2024-03-23T18:07:05;100108.06;;;19.16;35.25
13456;BME280;6800;50.940;6.940;2024-03-23T18:11:08;100110.69;;;18.90;35.60
13456;BME280;6800;50.940;6.940;2024-03-23T18:15:09;100117.13;;;18.88;36.23
13456;BME280;6800;50.940;6.940;2024-03-23T18:19:13;100122.44;;;18.70;35.89
13456;BME280;6800;50.940;6.940;2024-03-23T18:23:14;100130.94;;;18.99;35.94
13456;BME280;6800;50.940;6.940;2024-03-23T18:27:14;100139.19;;;17.99;37.97
13456;BME280;6800;50.940;6.940;2024-03-23T18:31:15;100143.84;;;19.28;36.44
13456;BME280;6800;50.940;6.940;2024-03-23T18:35:15;100163.13;;;19.12;36.69
13456;BME280;6800;50.940;6.940;2024-03-23T18:39:16;100159.31;;;18.72;38.22
13456;BME280;6800;50.940;6.940;2024-03-23T18:43:17;100149.84;;;17.33;40.42
13456;BME280;6800;50.940;6.940;2024-03-23T18:47:17;100133.53;;;18.56;39.44
13456;BME280;6800;50.940;6.940;2024-03-23T18:51:18;100127.44;;;18.28;43.72
13456;BME280;6800;50.940;6.940;2024-03-23T18:55:19;100112.81;;;18.16;41.83
13456;BME280;6800;50.940;6.940;2024-03-23T18:59:21;100122.16;;;17.10;41.33
13456;BME280;6800;50.940;6.940;2024-03-23T19:03:22;100122.44;;;16.97;41.96
13456;BME280;6800;50.940;6.940;2024-03-23T19:07:23;100123.16;;;17.46;41.02
13456;BME280;6800;50.940;6.940;2024-03-23T19:11:24;100117.38;;;17.69;41.18
13456;BME280;6800;50.940;6.940;2024-03-23T19:15:25;100131.59;;;17.59;40.92
13456;BME280;6800;50.940;6.940;2024-03-23T19:19:28;100117.19;;;16.88;42.02
13456;BME280;6800;50.940;6.940;2024-03-23T19:23:28;100105.56;;;17.27;41.46
13456;BME280;6800;50.940;6.940;2024-03-23T19:27:32;100102.88;;;17.46;40.69
13456;BME280;6800;50.940;6.940;2024-03-23T19:31:33;100099.59;;;17.35;40.85
13456;BME280;6800;50.940;6.940;2024-03-23T19:35:34;100106.63;;;17.07;41.66
13456;BME280;6800;50.940;6.940;2024-03-23T19:39:34;100106.91;;;17.50;41.30
13456;BME280;6800;50.940;6.940;2024-03-23T19:43:36;100104.53;;;17.01;41.67
13456;BME280;6800;50.940;6.940;2024-03-23T19:47:38;100101.09;;;17.37;40.88
13456;BME280;6800;50.940;6.940;2024-03-23T19:51:38;100098.19;;;17.31;41.24
13456;BME280;6800;50.940;6.940;2024-03-23T19:55:39;100104.09;;;17.15;41.02
13456;BME280;6800;50.940;6.940;2024-03-23T19:59:39;100095.41;;;16.95;41.70
13456;BME280;6800;50.940;6.940;2024-03-23T20:03:45;100083.25;;;17.22;41.57
13456;BME280;6800;50.940;6.940;2024-03-23T20:07:46;100073.69;;;17.48;41.06
13456;BME280;6800;50.940;6.940;2024-03-23T20:11:48;100080.53;;;17.50;41.15
13456;BME280;6800;50.940;6.940;2024-03-23T20:15:55;100071.28;;;16.81;41.86
13456;BME280;6800;50.940;6.940;2024-03-23T20:19:56;100067.13;;;16.88;42.28
13456;BME280;6800;50.940;6.940;2024-03-23T20:23:56;100069.75;;;17.34;41.29
13456;BME280;6800;50.940;6.940;2024-03-23T20:27:57;100074.97;;;17.53;40.91
13456;BME280;6800;50.940;6.940;2024-03-23T20:31:57;100068.06;;;17.70;40.38
13456;BME280;6800;50.940;6.940;2024-03-23T20:35:58;100069.19;;;17.31;41.39
13456;BME280;6800;50.940;6.940;2024-03-23T20:39:59;100065.22;;;17.54;40.87
13456;BME280;6800;50.940;6.940;2024-03-23T20:44:00;100058.66;;;17.85;40.22
13456;BME280;6800;50.940;6.940;2024-03-23T20:48:01;100064.84;;;17.76;39.69
13456;BME280;6800;50.940;6.940;2024-03-23T20:52:02;100066.94;;;18.17;39.46
13456;BME280;6800;50.940;6.940;2024-03-23T20:56:03;100071.69;;;18.31;39.36
13456;BME280;6800;50.940;6.940;2024-03-23T21:00:04;100074.25;;;18.58;39.33
13456;BME280;6800;50.940;6.940;2024-03-23T21:04:08;100070.94;;;18.56;39.46
13456;BME280;6800;50.940;6.940;2024-03-23T21:08:09;100083.25;;;18.48;40.13
13456;BME280;6800;50.940;6.940;2024-03-23T21:12:10;100078.19;;;18.19;40.79
13456;BME280;6800;50.940;6.940;2024-03-23T21:16:10;100068.56;;;18.18;40.99
13456;BME280;6800;50.940;6.940;2024-03-23T21:20:13;100065.56;;;18.31;40.65
13456;BME280;6800;50.940;6.940;2024-03-23T21:24:13;100061.59;;;18.44;40.50
13456;BME280;6800;50.940;6.940;2024-03-23T21:28:14;100062.28;;;17.84;41.27
13456;BME280;6800;50.940;6.940;2024-03-23T21:32:14;100041.47;;;18.16;41.28
13456;BME280;6800;50.940;6.940;2024-03-23T21:36:16;100040.50;;;18.17;40.66
13456;BME280;6800;50.940;6.940;2024-03-23T21:40:17;100029.16;;;18.25;40.35
13456;BME280;6800;50.940;6.940;2024-03-23T21:44:17;100029.31;;;17.70;41.50
13456;BME280;6800;50.940;6.940;2024-03-23T21:48:18;100026.06;;;17.76;41.23
13456;BME280;6800;50.940;6.940;2024-03-23T21:52:18;100038.59;;;17.92;41.08
13456;BME280;6800;50.940;6.940;2024-03-23T21:56:19;100041.34;;;17.73;41.42
13456;BME280;6800;50.940;6.940;2024-03-23T22:00:19;100032.56;;;17.82;41.50
13456;BME280;6800;50.940;6.940;2024-03-23T22:04:20;100031.81;;;18.07;41.41
13456;BME280;6800;50.940;6.940;2024-03-23T22:08:20;100025.13;;;18.13;40.87